Time;durP1;ratioP1;P1;durP2;ratioP2;P2;SDS_P1;SDS_P2;PMS_P1;PMS_P2;Temp;Humidity;BMP_temperature;BMP_pressure;BME280_temperature;BME280_humidity;BME280_pressure;Samples;Min_cycle;Max_cycle;Signal;HPM_P1;HPM_P2
2022/04/07 00:01:15;;;;;;;2.03;1.13;;;;;;;10.50;74.12;99024.50;3567578;40;20059;-61
2022/04/07 00:03:41;;;;;;;5.57;2.08;;;;;;;10.62;73.99;99040.34;3573116;40;20563;-60
2022/04/07 00:06:09;;;;;;;6.70;1.90;;;;;;;10.62;73.31;99023.38;3565179;40;20158;-61
2022/04/07 00:08:39;;;;;;;10.05;1.90;;;;;;;10.59;73.98;99029.03;3576698;40;20048;-60
2022/04/07 00:11:07;;;;;;;5.00;1.80;;;;;;;10.56;73.73;99023.94;3572906;40;20204;-61
2022/04/07 00:13:33;;;;;;;4.85;1.58;;;;;;;10.55;73.74;99016.88;3575166;40;20056;-60
2022/04/07 00:16:00;;;;;;;3.60;1.60;;;;;;;10.54;74.15;99015.19;3557549;40;20064;-60
2022/04/07 00:18:27;;;;;;;3.88;1.60;;;;;;;10.47;73.61;98987.19;3577751;40;20048;-61
2022/04/07 00:20:54;;;;;;;4.00;1.70;;;;;;;10.54;73.48;99005.28;3564332;40;20147;-60
2022/04/07 00:23:21;;;;;;;5.60;1.95;;;;;;;10.55;73.09;99006.13;3576729;40;20070;-61
2022/04/07 00:25:47;;;;;;;6.55;1.60;;;;;;;10.53;72.89;98990.16;3572961;40;20097;-60
2022/04/07 00:28:13;;;;;;;5.63;1.83;;;;;;;10.64;72.98;99002.63;3575161;40;20060;-61
2022/04/07 00:30:43;;;;;;;5.57;1.63;;;;;;;10.45;73.18;98963.16;3566972;40;20100;-60
2022/04/07 00:33:09;;;;;;;6.40;1.90;;;;;;;10.56;72.67;98970.22;3565127;40;20057;-61
2022/04/07 00:35:35;;;;;;;6.00;1.70;;;;;;;10.65;72.88;98969.38;3575108;40;20122;-61
2022/04/07 00:38:01;;;;;;;6.18;1.77;;;;;;;10.64;73.35;98973.06;3564194;40;20064;-60
2022/04/07 00:40:27;;;;;;;6.60;1.77;;;;;;;10.51;73.27;98932.19;3575959;40;20430;-61
2022/04/07 00:42:53;;;;;;;6.70;2.20;;;;;;;10.61;73.33;98959.91;3571621;40;20051;-61
2022/04/07 00:45:22;;;;;;;8.90;2.10;;;;;;;10.66;72.43;98955.81;3567461;40;20064;-61
2022/04/07 00:47:50;;;;;;;8.68;2.28;;;;;;;10.66;73.15;98954.97;3562764;40;20048;-60
2022/04/07 00:50:19;;;;;;;3.60;2.08;;;;;;;10.67;72.66;98952.13;3573344;40;20372;-61
2022/04/07 00:52:52;;;;;;;5.65;1.90;;;;;;;10.66;73.57;98946.91;3566183;40;20375;-60
2022/04/07 00:55:19;;;;;;;6.07;2.10;;;;;;;10.61;73.58;98949.16;3575890;40;20066;-61
2022/04/07 00:57:47;;;;;;;8.68;2.05;;;;;;;10.56;74.30;98937.97;3571929;40;20137;-60
2022/04/07 01:00:14;;;;;;;9.05;2.55;;;;;;;10.57;74.04;98945.06;3574383;40;20063;-61
2022/04/07 01:02:40;;;;;;;8.63;2.10;;;;;;;10.52;74.38;98931.19;3560510;40;20560;-60
2022/04/07 01:05:09;;;;;;;6.70;2.08;;;;;;;10.52;74.68;98925.81;3570248;40;20108;-61
2022/04/07 01:07:37;;;;;;;7.30;2.05;;;;;;;10.47;75.67;98928.09;3568761;40;20060;-60
2022/04/07 01:10:06;;;;;;;10.07;2.33;;;;;;;10.43;75.32;98916.75;3568286;40;20060;-60
2022/04/07 01:12:32;;;;;;;6.75;2.55;;;;;;;10.40;75.23;98917.91;3576257;40;20047;-60
2022/04/07 01:15:00;;;;;;;6.22;2.22;;;;;;;10.27;75.82;98898.53;3571501;40;20336;-60
2022/04/07 01:17:27;;;;;;;8.98;2.25;;;;;;;10.37;75.99;98912.81;3573381;39;20055;-60
2022/04/07 01:19:53;;;;;;;8.80;2.40;;;;;;;10.36;75.74;98913.78;3565162;40;20156;-59
2022/04/07 01:22:23;;;;;;;5.78;2.45;;;;;;;10.34;76.60;98913.09;3572075;40;20922;-59
2022/04/07 01:24:49;;;;;;;7.38;1.92;;;;;;;10.28;75.93;98902.91;3563946;40;20050;-59
2022/04/07 01:27:18;;;;;;;9.15;2.20;;;;;;;10.31;75.42;98891.06;3575008;40;20052;-59
2022/04/07 01:29:44;;;;;;;11.30;2.50;;;;;;;10.37;74.76;98885.97;3572554;40;20063;-60
2022/04/07 01:32:50;;;;;;;8.68;2.40;;;;;;;10.39;74.68;98881.28;3568657;40;20167;-60
2022/04/07 01:35:18;;;;;;;6.57;2.30;;;;;;;10.42;73.61;98866.72;3535548;40;20096;-61
2022/04/07 01:37:47;;;;;;;8.32;2.42;;;;;;;10.39;73.96;98857.09;3563709;40;20452;-59
2022/04/07 01:40:21;;;;;;;9.63;2.17;;;;;;;10.49;73.33;98861.63;3566888;40;20064;-59
2022/04/07 01:42:52;;;;;;;8.15;1.90;;;;;;;10.52;72.82;98855.97;3570532;40;20052;-59
2022/04/07 01:45:20;;;;;;;12.57;2.55;;;;;;;10.52;73.62;98839.84;3573177;40;20095;-60
2022/04/07 01:47:46;;;;;;;9.50;1.98;;;;;;;10.52;73.94;98831.78;3560324;40;20268;-59
2022/04/07 01:50:13;;;;;;;8.75;2.05;;;;;;;10.49;73.62;98850.88;3572891;40;20129;-60
2022/04/07 01:52:45;;;;;;;5.25;1.80;;;;;;;10.49;73.88;98834.75;3570704;40;20060;-60
2022/04/07 01:55:15;;;;;;;5.88;2.42;;;;;;;10.52;73.27;98823.72;3567074;40;20049;-60
2022/04/07 01:57:44;;;;;;;8.95;2.25;;;;;;;10.50;73.74;98812.28;3573805;40;20056;-60
2022/04/07 02:00:10;;;;;;;6.30;2.30;;;;;;;10.57;73.54;98810.72;3572710;40;20048;-61
2022/04/07 02:02:36;;;;;;;9.25;2.15;;;;;;;10.56;73.66;98792.91;3567612;40;20359;-60
2022/04/07 02:05:08;;;;;;;8.40;2.22;;;;;;;10.58;73.60;98813.25;3564728;40;20076;-60
2022/04/07 02:07:37;;;;;;;7.93;2.33;;;;;;;10.54;75.01;98819.06;3572812;40;20060;-60
2022/04/07 02:10:05;;;;;;;8.70;2.45;;;;;;;10.52;75.02;98818.38;3561396;40;20059;-60
2022/04/07 02:12:31;;;;;;;9.02;2.30;;;;;;;10.53;75.10;98815.56;3575153;40;20052;-60
2022/04/07 02:14:59;;;;;;;7.38;2.40;;;;;;;10.55;74.34;98818.91;3571987;40;20048;-62
2022/04/07 02:17:26;;;;;;;6.65;2.38;;;;;;;10.52;74.92;98799.56;3567316;40;20056;-60
2022/04/07 02:19:58;;;;;;;8.25;2.30;;;;;;;10.52;74.34;98807.63;3564266;40;20816;-60
2022/04/07 02:22:28;;;;;;;9.17;2.17;;;;;;;10.54;73.87;98798.44;3575504;40;20153;-60
2022/04/07 02:24:56;;;;;;;7.22;2.33;;;;;;;10.54;73.87;98774.25;3568756;40;20052;-59
2022/04/07 02:27:22;;;;;;;6.90;1.92;;;;;;;10.58;73.43;98790.91;3567986;40;20071;-60
2022/04/07 02:29:47;;;;;;;7.32;1.90;;;;;;;10.54;72.87;98770.72;3571483;40;20072;-60
2022/04/07 02:32:13;;;;;;;8.38;2.38;;;;;;;10.65;73.33;98778.59;3567004;40;20518;-60
2022/04/07 02:34:41;;;;;;;11.20;2.15;;;;;;;10.44;72.78;98746.56;3568896;40;20049;-59
2022/04/07 02:37:07;;;;;;;10.05;2.30;;;;;;;10.70;72.67;98776.31;3569172;40;20076;-60
2022/04/07 02:39:33;;;;;;;5.07;1.88;;;;;;;10.67;71.72;98779.31;3570819;40;20074;-60
2022/04/07 02:41:59;;;;;;;9.93;2.53;;;;;;;10.72;72.09;98758.22;3563357;40;20056;-61
2022/04/07 02:44:25;;;;;;;7.07;2.13;;;;;;;10.66;71.23;98751.59;3574718;40;20056;-60
2022/04/07 02:46:50;;;;;;;11.73;2.30;;;;;;;10.80;71.64;98771.75;3571719;40;20058;-60
2022/04/07 02:49:17;;;;;;;6.80;2.20;;;;;;;10.16;71.15;98640.91;3567838;40;20056;-60
2022/04/07 02:51:43;;;;;;;9.13;2.30;;;;;;;10.85;71.07;98750.69;3565335;40;20373;-60
2022/04/07 02:54:10;;;;;;;8.57;2.22;;;;;;;10.88;70.50;98734.25;3572758;40;20094;-60
2022/04/07 02:56:36;;;;;;;7.53;2.25;;;;;;;10.92;70.83;98730.28;3567024;40;20405;-60
2022/04/07 02:59:02;;;;;;;8.13;2.13;;;;;;;10.95;70.31;98739.03;3567387;39;20064;-60
2022/04/07 03:01:28;;;;;;;8.10;2.20;;;;;;;10.93;70.27;98733.78;3573878;39;20052;-61
2022/04/07 03:03:55;;;;;;;11.05;2.38;;;;;;;10.96;69.85;98732.66;3564330;40;20083;-60
2022/04/07 03:06:24;;;;;;;7.18;2.33;;;;;;;11.01;69.66;98717.78;3564716;40;20078;-60
2022/04/07 03:08:53;;;;;;;8.02;2.40;;;;;;;10.96;69.56;98713.84;3570005;40;20737;-60
2022/04/07 03:11:19;;;;;;;6.97;2.10;;;;;;;11.03;69.00;98696.09;3570338;40;20060;-60
2022/04/07 03:13:44;;;;;;;8.18;2.38;;;;;;;11.07;69.54;98700.22;3564442;40;20064;-62
2022/04/07 03:16:10;;;;;;;7.72;2.03;;;;;;;11.07;68.78;98689.47;3572793;40;20138;-61
2022/04/07 03:18:36;;;;;;;7.07;2.28;;;;;;;11.09;68.85;98688.28;3574760;40;20378;-59
2022/04/07 03:21:03;;;;;;;10.82;2.55;;;;;;;11.08;68.94;98666.94;3558371;40;20066;-60
2022/04/07 03:23:28;;;;;;;6.38;2.03;;;;;;;11.08;68.78;98661.56;3574291;40;20096;-61
2022/04/07 03:25:54;;;;;;;8.45;2.10;;;;;;;11.11;68.49;98656.72;3571726;40;20674;-60
2022/04/07 03:28:20;;;;;;;8.05;2.05;;;;;;;11.14;68.39;98661.81;3568093;40;20063;-61
2022/04/07 03:30:46;;;;;;;7.90;2.22;;;;;;;11.13;67.89;98667.31;3573295;40;20128;-60
2022/04/07 03:33:11;;;;;;;11.13;2.75;;;;;;;11.14;67.64;98653.72;3580463;39;20071;-60
2022/04/07 03:35:37;;;;;;;8.10;1.80;;;;;;;11.17;67.46;98668.72;3569012;40;20452;-60
2022/04/07 03:38:06;;;;;;;9.90;2.20;;;;;;;11.11;67.89;98637.91;3565174;40;20085;-60
2022/04/07 03:40:35;;;;;;;8.90;1.98;;;;;;;11.18;67.43;98653.44;3575300;40;20067;-60
2022/04/07 03:43:03;;;;;;;5.93;2.03;;;;;;;11.08;67.61;98632.00;3562726;40;20058;-61
2022/04/07 03:45:29;;;;;;;4.80;1.70;;;;;;;11.17;67.76;98639.16;3575229;40;20397;-60
2022/04/07 03:47:55;;;;;;;13.70;2.50;;;;;;;11.15;67.22;98617.78;3571640;40;20052;-61
2022/04/07 03:50:21;;;;;;;6.82;2.38;;;;;;;11.14;67.64;98636.75;3575360;40;20125;-61
2022/04/07 03:52:46;;;;;;;6.03;1.88;;;;;;;11.15;67.96;98643.81;3557095;40;20478;-60
2022/04/07 03:55:12;;;;;;;8.90;2.58;;;;;;;11.12;67.58;98620.75;3575823;40;20306;-60
2022/04/07 03:57:38;;;;;;;9.60;2.75;;;;;;;11.13;67.80;98616.22;3571200;40;20048;-60
2022/04/07 04:00:05;;;;;;;6.88;2.30;;;;;;;11.04;68.00;98598.34;3565655;40;20068;-60
2022/04/07 04:02:31;;;;;;;4.38;1.90;;;;;;;11.13;67.68;98602.78;3574397;40;20083;-60
2022/04/07 04:04:57;;;;;;;6.45;1.95;;;;;;;11.13;67.72;98578.56;3573195;40;20052;-61
2022/04/07 04:07:22;;;;;;;7.05;2.38;;;;;;;11.12;67.87;98563.47;3561867;40;20048;-62
2022/04/07 04:09:48;;;;;;;9.90;2.15;;;;;;;11.12;68.19;98569.66;3571368;40;20057;-62
2022/04/07 04:12:13;;;;;;;7.05;1.80;;;;;;;11.16;67.19;98554.06;3570279;40;20068;-62
2022/04/07 04:14:39;;;;;;;7.70;2.08;;;;;;;11.13;68.09;98554.38;3565720;40;20375;-61
2022/04/07 04:17:05;;;;;;;3.90;1.70;;;;;;;11.11;68.06;98540.25;3574565;40;20072;-61
2022/04/07 04:19:32;;;;;;;5.82;2.00;;;;;;;11.14;68.23;98526.50;3574671;40;20411;-62
2022/04/07 04:21:58;;;;;;;7.82;2.20;;;;;;;11.14;67.57;98531.91;3566020;40;20347;-62
2022/04/07 04:24:23;;;;;;;4.88;1.58;;;;;;;11.11;67.40;98498.09;3564900;40;20390;-62
2022/04/07 04:26:49;;;;;;;8.38;2.08;;;;;;;11.14;67.62;98489.72;3569961;40;20055;-62
2022/04/07 04:29:15;;;;;;;5.10;1.50;;;;;;;11.14;67.06;98491.56;3571655;40;20048;-62
2022/04/07 04:31:40;;;;;;;3.80;1.55;;;;;;;11.16;66.86;98484.16;3566942;40;20044;-62
2022/04/07 04:34:06;;;;;;;4.43;1.50;;;;;;;11.16;66.98;98500.28;3573473;40;20067;-62
2022/04/07 04:36:33;;;;;;;7.82;1.73;;;;;;;11.18;66.99;98497.47;3574146;40;20071;-62
2022/04/07 04:38:59;;;;;;;5.47;1.70;;;;;;;11.21;67.16;98489.94;3558356;39;20071;-60
2022/04/07 04:41:25;;;;;;;6.88;1.65;;;;;;;11.20;67.38;98469.44;3571966;40;20060;-60
2022/04/07 04:43:50;;;;;;;5.85;1.73;;;;;;;11.21;67.86;98460.34;3574799;40;20048;-61
2022/04/07 04:46:16;;;;;;;3.38;1.60;;;;;;;11.22;68.65;98466.56;3565544;40;20056;-61
2022/04/07 04:48:41;;;;;;;6.35;1.73;;;;;;;11.14;68.75;98468.19;3575396;40;20052;-62
2022/04/07 04:51:07;;;;;;;3.63;1.58;;;;;;;11.12;69.79;98480.94;3573246;40;20056;-61
2022/04/07 04:53:33;;;;;;;2.80;1.30;;;;;;;11.11;70.38;98448.84;3557637;40;20122;-62
2022/04/07 04:55:59;;;;;;;5.97;1.33;;;;;;;10.96;70.80;98431.59;3573069;40;20082;-62
2022/04/07 04:58:24;;;;;;;5.00;1.52;;;;;;;11.00;72.20;98443.72;3571495;40;20060;-62
2022/04/07 05:00:51;;;;;;;1.63;1.20;;;;;;;10.95;72.31;98433.44;3576388;40;20055;-62
2022/04/07 05:03:16;;;;;;;10.50;1.20;;;;;;;10.87;72.39;98414.56;3565740;40;20106;-62
2022/04/07 05:05:42;;;;;;;3.38;1.20;;;;;;;10.67;72.59;98385.19;3574502;40;20060;-62
2022/04/07 05:08:08;;;;;;;2.50;1.30;;;;;;;10.79;72.90;98393.84;3564513;40;20076;-61
2022/04/07 05:10:35;;;;;;;2.65;1.25;;;;;;;10.58;72.65;98356.56;3572138;40;20056;-62
2022/04/07 05:13:01;;;;;;;3.28;1.25;;;;;;;10.78;72.45;98397.50;3565192;40;20053;-61
2022/04/07 05:15:26;;;;;;;2.33;1.25;;;;;;;10.77;72.95;98389.63;3572661;40;20052;-61
2022/04/07 05:17:53;;;;;;;4.70;1.50;;;;;;;10.20;73.36;98309.38;3565295;40;20134;-61
2022/04/07 05:20:20;;;;;;;3.25;1.40;;;;;;;10.74;73.15;98379.19;3573129;39;20071;-62
2022/04/07 05:22:46;;;;;;;4.40;1.50;;;;;;;10.73;72.72;98386.41;3573545;40;20284;-59
2022/04/07 05:25:13;;;;;;;3.17;1.50;;;;;;;10.76;73.32;98380.72;3564221;40;20059;-61
2022/04/07 05:27:40;;;;;;;2.20;1.38;;;;;;;10.77;72.72;98363.59;3609545;22;20390;-65
2022/04/07 05:30:12;;;;;;;6.47;1.98;;;;;;;10.75;72.88;98352.16;3572423;40;20060;-65
2022/04/07 05:32:38;;;;;;;5.13;1.88;;;;;;;10.70;73.68;98343.72;3575896;40;20062;-64
2022/04/07 05:35:05;;;;;;;4.90;2.00;;;;;;;10.67;74.34;98354.78;3563408;40;20048;-64
2022/04/07 05:37:31;;;;;;;4.40;1.98;;;;;;;10.48;75.21;98323.56;3572267;40;20060;-64
2022/04/07 05:39:56;;;;;;;6.60;2.38;;;;;;;10.52;76.27;98350.97;3563423;40;20539;-64
2022/04/07 05:42:22;;;;;;;4.25;2.38;;;;;;;10.40;77.73;98332.44;3569825;40;20055;-64
2022/04/07 05:44:48;;;;;;;2.95;2.10;;;;;;;10.32;78.92;98328.81;3574028;40;20095;-64
2022/04/07 05:47:14;;;;;;;5.22;2.97;;;;;;;10.23;80.01;98336.75;3577916;39;20062;-64
2022/04/07 05:49:39;;;;;;;3.80;2.60;;;;;;;10.13;79.85;98313.69;3566520;40;20092;-63
2022/04/07 05:52:06;;;;;;;8.73;3.17;;;;;;;10.09;80.27;98306.94;3569968;40;20053;-64
2022/04/07 05:54:32;;;;;;;5.20;2.42;;;;;;;10.05;80.48;98294.81;3573963;40;20072;-65
2022/04/07 05:56:58;;;;;;;7.47;4.72;;;;;;;10.04;80.63;98279.72;3558230;40;20107;-62
2022/04/07 05:59:24;;;;;;;7.28;2.60;;;;;;;10.05;80.27;98276.84;3574917;40;20070;-63
2022/04/07 06:01:49;;;;;;;10.63;3.00;;;;;;;10.04;80.63;98266.28;3575181;40;20287;-62
2022/04/07 06:04:15;;;;;;;6.03;3.25;;;;;;;9.92;80.21;98250.41;3574650;40;20044;-62
2022/04/07 06:06:41;;;;;;;6.15;3.20;;;;;;;10.01;79.96;98264.75;3567185;40;20105;-62
2022/04/07 06:09:07;;;;;;;10.45;3.53;;;;;;;10.00;79.84;98233.56;3573451;40;20530;-62
2022/04/07 06:11:33;;;;;;;6.63;3.03;;;;;;;9.99;79.63;98243.44;3568336;40;20067;-61
2022/04/07 06:13:59;;;;;;;7.10;2.95;;;;;;;9.94;79.81;98264.53;3572227;40;20104;-61
2022/04/07 06:16:24;;;;;;;3.30;2.53;;;;;;;9.96;80.08;98222.28;3575043;40;20129;-62
2022/04/07 06:18:54;;;;;;;7.50;3.00;;;;;;;9.89;79.96;98231.94;3574283;40;20056;-61
2022/04/07 06:21:20;;;;;;;6.05;2.85;;;;;;;9.96;79.96;98227.66;3566132;40;20056;-61
2022/04/07 06:23:46;;;;;;;7.05;3.20;;;;;;;9.94;80.50;98228.81;3574720;40;20052;-61
2022/04/07 06:26:12;;;;;;;4.55;2.10;;;;;;;9.89;79.67;98210.47;3564805;40;20052;-62
2022/04/07 06:28:40;;;;;;;5.70;2.22;;;;;;;9.93;79.95;98201.13;3562157;40;20056;-61
2022/04/07 06:31:06;;;;;;;10.30;2.83;;;;;;;9.93;80.15;98190.41;3571271;40;20315;-62
2022/04/07 06:33:31;;;;;;;7.35;2.30;;;;;;;9.88;80.09;98202.59;3566244;40;20064;-61
2022/04/07 06:35:57;;;;;;;4.93;2.15;;;;;;;9.91;80.07;98197.75;3570376;40;20067;-62
2022/04/07 06:38:23;;;;;;;4.60;2.03;;;;;;;9.64;80.97;98146.88;3565608;40;20059;-62
2022/04/07 06:40:49;;;;;;;5.47;2.15;;;;;;;9.91;80.54;98181.66;3561625;40;20151;-61
2022/04/07 06:43:14;;;;;;;9.73;2.47;;;;;;;9.92;80.86;98159.19;3573397;39;20573;-62
2022/04/07 06:45:40;;;;;;;9.80;2.05;;;;;;;9.92;81.11;98163.69;3571459;40;20421;-62
2022/04/07 06:48:07;;;;;;;4.32;1.98;;;;;;;9.89;80.99;98148.75;3569627;40;20056;-62
2022/04/07 06:50:32;;;;;;;3.70;1.63;;;;;;;9.87;81.65;98147.25;3568059;40;20062;-61
2022/04/07 06:52:59;;;;;;;6.00;1.40;;;;;;;9.89;81.93;98123.75;3564105;40;20072;-62
2022/04/07 06:55:26;;;;;;;7.65;1.70;;;;;;;9.87;81.21;98123.09;3575690;40;20050;-62
2022/04/07 06:57:55;;;;;;;7.15;1.83;;;;;;;9.86;81.42;98114.19;3563273;40;20222;-62
2022/04/07 07:00:24;;;;;;;5.28;1.40;;;;;;;9.95;81.12;98115.09;3574342;40;20053;-62
2022/04/07 07:02:55;;;;;;;7.07;1.80;;;;;;;9.70;81.63;98068.47;3568336;40;20060;-62
2022/04/07 07:05:24;;;;;;;7.05;1.90;;;;;;;9.72;81.67;98058.44;3570869;40;20056;-62
2022/04/07 07:07:50;;;;;;;4.82;1.77;;;;;;;9.86;82.01;98075.78;3565995;40;20066;-62
2022/04/07 07:10:24;;;;;;;6.15;1.67;;;;;;;9.86;81.81;98065.88;3572869;39;20064;-62
2022/04/07 07:12:52;;;;;;;6.35;2.05;;;;;;;9.85;82.34;98068.75;3563258;40;20064;-62
2022/04/07 07:15:21;;;;;;;4.80;1.70;;;;;;;9.84;83.08;98057.19;3574965;40;20169;-62
2022/04/07 07:17:47;;;;;;;5.53;1.58;;;;;;;9.85;83.41;98048.13;3567732;40;20056;-62
2022/04/07 07:20:13;;;;;;;3.25;1.58;;;;;;;9.85;83.77;98039.22;3574546;39;20099;-62
2022/04/07 07:22:41;;;;;;;3.80;1.48;;;;;;;9.83;83.46;98034.03;3562881;40;20387;-62
2022/04/07 07:25:09;;;;;;;2.33;1.55;;;;;;;9.83;83.27;98031.34;3573243;40;20045;-62
2022/04/07 07:27:47;;;;;;;2.95;1.42;;;;;;;9.88;83.60;98004.88;3574978;40;20064;-62
2022/04/07 07:30:16;;;;;;;4.85;1.58;;;;;;;9.91;83.48;98001.88;3567185;40;20067;-62
2022/04/07 07:32:47;;;;;;;5.78;1.88;;;;;;;9.95;84.24;97988.97;3572948;40;20493;-61
2022/04/07 07:35:17;;;;;;;5.47;2.25;;;;;;;10.01;84.31;97993.69;3573713;40;20063;-62
2022/04/07 07:37:55;;;;;;;6.25;2.10;;;;;;;10.05;84.44;97970.88;3567912;40;20064;-61
2022/04/07 07:40:24;;;;;;;2.95;1.80;;;;;;;10.09;84.62;97964.22;3567524;40;20054;-62
2022/04/07 07:42:56;;;;;;;3.75;1.90;;;;;;;10.12;84.27;97968.44;3572302;40;20063;-62
2022/04/07 07:45:23;;;;;;;4.95;1.75;;;;;;;10.20;84.25;97961.22;3567183;40;20121;-62
2022/04/07 07:47:50;;;;;;;3.53;1.70;;;;;;;10.32;84.52;97975.22;3572327;40;20065;-62
2022/04/07 07:50:16;;;;;;;5.25;2.72;;;;;;;10.35;84.15;98202.31;3574168;40;20047;-62
2022/04/07 07:52:41;;;;;;;3.03;1.38;;;;;;;9.60;75.54;98173.16;3568053;40;20067;-60
2022/04/07 07:55:08;;;;;;;4.35;1.90;;;;;;;8.83;76.53;98124.50;3566825;40;20667;-61
2022/04/07 07:57:34;;;;;;;1.58;0.70;;;;;;;8.81;77.97;98163.13;3573288;40;20056;-61
2022/04/07 08:00:00;;;;;;;2.50;1.30;;;;;;;8.55;79.18;98155.78;3565056;40;20064;-60
2022/04/07 08:02:27;;;;;;;2.40;0.90;;;;;;;8.43;79.56;98148.94;3571891;40;20056;-61
2022/04/07 08:04:52;;;;;;;2.67;0.88;;;;;;;8.22;80.77;98142.94;3570970;40;20362;-60
2022/04/07 08:07:18;;;;;;;1.98;0.70;;;;;;;8.16;80.25;98148.88;3569140;40;20113;-61
2022/04/07 08:09:44;;;;;;;1.77;1.05;;;;;;;8.02;81.37;98137.63;3566613;39;20052;-61
2022/04/07 08:12:10;;;;;;;3.08;1.00;;;;;;;7.95;82.11;98125.81;3572880;40;20064;-61
2022/04/07 08:14:36;;;;;;;3.28;1.00;;;;;;;7.91;82.63;98137.81;3565497;40;20146;-61
2022/04/07 08:17:03;;;;;;;1.45;0.88;;;;;;;7.86;82.99;98118.66;3574140;40;20048;-60
2022/04/07 08:19:28;;;;;;;4.45;1.00;;;;;;;7.84;83.14;98124.19;3573463;40;20060;-61
2022/04/07 08:21:54;;;;;;;1.88;0.73;;;;;;;7.89;84.05;98123.72;3570683;40;20060;-60
2022/04/07 08:24:20;;;;;;;3.00;1.63;;;;;;;7.93;83.54;98119.78;3564522;40;20068;-61
2022/04/07 08:26:46;;;;;;;3.60;0.90;;;;;;;7.98;84.09;98135.41;3575378;40;20048;-61
2022/04/07 08:29:12;;;;;;;2.50;1.00;;;;;;;8.10;84.76;98129.72;3573438;40;20072;-61
2022/04/07 08:31:38;;;;;;;4.00;1.15;;;;;;;8.18;84.29;98114.78;3565203;40;20060;-61
2022/04/07 08:34:04;;;;;;;3.45;0.88;;;;;;;8.28;84.23;98126.31;3572954;40;20315;-61
2022/04/07 08:36:30;;;;;;;3.70;0.77;;;;;;;8.36;83.92;98135.25;3575817;40;20052;-62
2022/04/07 08:38:55;;;;;;;3.35;0.88;;;;;;;8.46;84.17;98124.53;3568524;40;20141;-61
2022/04/07 08:41:23;;;;;;;4.13;1.52;;;;;;;8.58;83.88;98118.00;3566680;40;20195;-63
2022/04/07 08:43:49;;;;;;;1.52;0.80;;;;;;;8.69;84.42;98124.16;3574036;40;20150;-63
2022/04/07 08:46:15;;;;;;;3.60;1.20;;;;;;;8.77;83.88;98106.34;3565208;40;20821;-63
2022/04/07 08:48:43;;;;;;;4.43;1.35;;;;;;;8.82;84.02;98114.78;3574845;40;20060;-63
2022/04/07 08:51:11;;;;;;;1.52;1.00;;;;;;;8.96;83.83;98108.06;3573212;40;20071;-63
2022/04/07 08:53:39;;;;;;;6.72;1.30;;;;;;;8.99;83.96;98099.72;3575712;40;20040;-64
2022/04/07 08:56:07;;;;;;;3.80;2.13;;;;;;;9.13;83.29;98117.09;3559902;40;20310;-64
2022/04/07 08:58:33;;;;;;;3.88;1.60;;;;;;;9.25;83.77;98112.34;3574695;40;20060;-64
2022/04/07 09:01:00;;;;;;;7.45;1.55;;;;;;;9.51;84.14;98132.06;3572872;40;20739;-64
2022/04/07 09:03:26;;;;;;;4.05;1.42;;;;;;;9.53;83.43;98081.78;3566235;40;20657;-64
2022/04/07 09:06:10;;;;;;;4.03;1.40;;;;;;;10.10;83.27;98112.69;3574334;40;20060;-64
2022/04/07 09:08:39;;;;;;;3.42;1.25;;;;;;;10.29;81.13;98117.00;3573646;40;20048;-64
2022/04/07 09:11:08;;;;;;;1.20;0.90;;;;;;;9.88;80.13;98026.34;3564229;40;20060;-65
2022/04/07 09:13:42;;;;;;;2.67;1.20;;;;;;;10.60;79.61;98111.97;3574073;40;20044;-65
2022/04/07 09:16:16;;;;;;;4.55;1.70;;;;;;;10.71;80.34;98108.97;3572757;40;20151;-66
2022/04/07 09:18:49;;;;;;;;;;;;;;;10.77;80.23;98115.53;3565925;40;20056;-65
2022/04/07 09:21:31;;;;;;;3.90;2.10;;;;;;;10.88;79.43;98116.09;3572311;40;19943;-66
2022/04/07 09:23:58;;;;;;;5.68;2.63;;;;;;;11.15;79.68;98111.44;3573350;40;20130;-66
2022/04/07 09:26:24;;;;;;;3.97;2.70;;;;;;;11.30;78.64;98100.88;3561558;40;20070;-66
2022/04/07 09:28:56;;;;;;;4.47;3.15;;;;;;;11.48;78.07;98081.88;3564899;40;20075;-66
2022/04/07 09:31:22;;;;;;;3.75;3.40;;;;;;;11.88;76.77;98118.72;3575216;40;20052;-67
2022/04/07 09:33:56;;;;;;;5.60;3.88;;;;;;;12.01;76.65;98102.88;3562894;40;20064;-67
2022/04/07 09:36:23;;;;;;;4.80;3.45;;;;;;;12.23;74.62;98117.47;3575276;40;20054;-66
2022/04/07 09:38:55;;;;;;;2.83;2.53;;;;;;;12.27;71.92;98137.69;3573574;40;20052;-68
2022/04/07 09:41:23;;;;;;;3.42;2.90;;;;;;;12.20;71.72;98127.75;3570341;40;20094;-66
2022/04/07 09:43:58;;;;;;;6.72;2.60;;;;;;;12.26;70.88;98143.25;3565290;40;20060;-65
2022/04/07 09:46:35;;;;;;;4.03;2.60;;;;;;;12.33;72.05;98138.84;3574732;40;20387;-65
2022/04/07 09:49:09;;;;;;;3.50;2.17;;;;;;;12.52;71.31;98122.28;3562014;40;20059;-65
2022/04/07 09:51:45;;;;;;;;;;;;;;;12.57;67.34;98135.25;3573149;40;20048;-65
2022/04/07 09:54:12;;;;;;;4.47;2.30;;;;;;;12.48;66.88;98115.56;3572526;40;20040;-65
2022/04/07 09:56:38;;;;;;;2.63;1.60;;;;;;;11.95;64.34;98054.28;3569004;40;20067;-66
2022/04/07 09:59:06;;;;;;;5.40;2.05;;;;;;;12.68;64.84;98126.75;3565464;40;20067;-65
2022/04/07 10:01:33;;;;;;;1.88;1.70;;;;;;;12.84;64.47;98125.03;3574216;40;20052;-66
2022/04/07 10:04:00;;;;;;;4.60;2.10;;;;;;;12.83;64.40;98126.88;3561858;40;20109;-66
2022/04/07 10:06:27;;;;;;;4.10;2.13;;;;;;;12.75;63.98;98121.53;3573717;40;20060;-66
2022/04/07 10:08:52;;;;;;;4.13;2.50;;;;;;;12.67;64.52;98130.47;3571808;40;20385;-67
2022/04/07 10:11:18;;;;;;;4.03;2.53;;;;;;;12.68;66.00;98132.16;3573710;40;20056;-67
2022/04/07 10:13:46;;;;;;;2.72;2.15;;;;;;;12.29;64.98;98095.25;3563557;40;20063;-67
2022/04/07 10:16:16;;;;;;;4.22;2.05;;;;;;;12.32;63.71;98132.63;3570589;40;20060;-67
2022/04/07 10:18:56;;;;;;;5.45;2.03;;;;;;;12.38;61.48;98152.66;3573176;40;20056;-67
2022/04/07 10:21:48;;;;;;;4.93;1.50;;;;;;;12.20;57.82;98155.53;3566679;40;20383;-67
2022/04/07 10:24:37;;;;;;;5.47;1.63;;;;;;;12.27;58.42;98153.84;3573073;40;20136;-67
2022/04/07 10:27:09;;;;;;;7.45;1.40;;;;;;;12.63;58.41;98164.19;3572216;40;20506;-68
2022/04/07 10:29:35;;;;;;;4.78;1.45;;;;;;;12.96;55.86;98148.72;3570581;40;20290;-68
2022/04/07 10:32:12;;;;;;;5.82;1.40;;;;;;;13.37;56.20;98158.47;3572099;40;20100;-69
2022/04/07 10:34:43;;;;;;;5.78;1.52;;;;;;;13.47;54.87;98140.19;3571561;40;20064;-71
2022/04/07 10:37:10;;;;;;;4.65;1.65;;;;;;;13.56;53.36;98131.03;3568577;39;20064;-68
2022/04/07 10:39:41;;;;;;;6.72;1.42;;;;;;;13.93;53.42;98159.09;3574789;40;20063;-71
2022/04/07 10:42:09;;;;;;;4.70;1.33;;;;;;;14.08;52.65;98173.47;3573124;40;20776;-68
2022/04/07 10:44:36;;;;;;;3.53;1.08;;;;;;;14.12;50.25;98172.09;3571302;40;20048;-68
2022/04/07 10:47:08;;;;;;;5.93;1.60;;;;;;;14.37;50.98;98155.66;3572680;40;20524;-68
2022/04/07 10:49:34;;;;;;;5.53;1.27;;;;;;;14.32;52.32;98185.06;3578575;40;20044;-72
2022/04/07 10:52:04;;;;;;;8.10;1.70;;;;;;;14.68;53.07;98200.59;3566023;39;20048;-68
2022/04/07 10:54:30;;;;;;;8.38;1.98;;;;;;;14.44;51.45;98183.59;3577215;40;20148;-68
2022/04/07 10:57:01;;;;;;;5.38;1.55;;;;;;;14.22;50.57;98189.91;3571530;40;20064;-67
2022/04/07 10:59:31;;;;;;;5.80;1.63;;;;;;;14.10;51.39;98189.50;3568884;40;20059;-66
2022/04/07 11:02:11;;;;;;;6.82;1.83;;;;;;;14.11;50.28;98205.53;3574442;40;20140;-66
2022/04/07 11:04:56;;;;;;;6.93;1.92;;;;;;;14.29;50.05;98207.06;3574427;40;20088;-67
2022/04/07 11:07:22;;;;;;;6.25;2.10;;;;;;;14.60;50.53;98204.25;3565619;40;20402;-66
2022/04/07 11:10:03;;;;;;;9.30;1.45;;;;;;;14.91;48.33;98217.59;3572973;40;20040;-67
2022/04/07 11:12:43;;;;;;;7.03;1.80;;;;;;;14.96;47.98;98220.56;3573233;40;20064;-65
2022/04/07 11:15:48;;;;;;;8.13;2.05;;;;;;;14.59;47.22;98235.03;3567439;40;20173;-65
2022/04/07 11:18:26;;;;;;;7.35;1.65;;;;;;;14.39;47.30;98248.16;3571077;40;20057;-65
2022/04/07 11:21:11;;;;;;;6.95;2.03;;;;;;;14.31;47.18;98257.19;3573124;40;20044;-68
2022/04/07 11:23:42;;;;;;;6.53;2.15;;;;;;;14.35;47.24;98246.88;3564743;40;20049;-68
2022/04/07 11:26:20;;;;;;;9.68;2.00;;;;;;;14.52;48.06;98239.47;3567239;40;20048;-66
2022/04/07 11:29:11;;;;;;;7.47;1.70;;;;;;;14.37;47.63;98263.75;3570283;40;20056;-62
2022/04/07 11:31:44;;;;;;;8.52;2.00;;;;;;;14.80;48.21;98258.63;3570310;40;20059;-62
2022/04/07 11:34:51;;;;;;;9.23;2.10;;;;;;;15.01;45.59;98277.69;3574192;40;20120;-63
2022/04/07 11:37:19;;;;;;;6.00;1.55;;;;;;;14.62;44.34;98278.75;3567308;40;20072;-63
2022/04/07 11:39:48;;;;;;;7.50;2.10;;;;;;;14.01;45.69;98214.88;3573476;40;20307;-62
2022/04/07 11:42:20;;;;;;;9.43;2.15;;;;;;;14.22;45.42;98270.97;3576560;40;20064;-62